Time;durP1;ratioP1;P1;durP2;ratioP2;P2;SDS_P1;SDS_P2;PMS_P1;PMS_P2;Temp;Humidity;BMP_temperature;BMP_pressure;BME280_temperature;BME280_humidity;BME280_pressure;Samples;Min_cycle;Max_cycle;Signal;HPM_P1;HPM_P2
2021/12/06 00:01:53;;;;;;;25.20;11.40;;;;;;;2.12;97.59;100486.75;104541;1325;72675;-78
2021/12/06 00:04:25;;;;;;;17.80;9.10;;;;;;;2.10;97.60;100487.44;104553;1324;72854;-79
2021/12/06 00:06:56;;;;;;;15.20;6.30;;;;;;;2.07;97.55;100486.81;104269;1328;59876;-75
2021/12/06 00:09:25;;;;;;;27.70;10.90;;;;;;;2.02;97.40;100484.09;104095;1321;60543;-75
2021/12/06 00:11:58;;;;;;;23.20;10.00;;;;;;;1.97;97.55;100483.91;104062;1324;75054;-75
2021/12/06 00:14:29;;;;;;;25.40;9.30;;;;;;;1.93;97.53;100482.31;104554;1324;71417;-78
2021/12/06 00:16:58;;;;;;;24.10;9.90;;;;;;;1.88;97.59;100476.50;104246;1327;72048;-79
2021/12/06 00:19:26;;;;;;;25.30;9.90;;;;;;;1.86;97.84;100482.42;103927;1324;61453;-75
2021/12/06 00:21:54;;;;;;;19.60;8.50;;;;;;;1.84;97.83;100484.85;104540;1324;60385;-78
2021/12/06 00:24:24;;;;;;;32.80;12.10;;;;;;;1.79;97.54;100486.95;104380;1328;75057;-75
2021/12/06 00:26:51;;;;;;;13.60;5.80;;;;;;;1.78;97.77;100489.98;104608;1324;71522;-78
2021/12/06 00:29:18;;;;;;;34.40;12.80;;;;;;;1.75;97.79;100497.77;104527;1324;73458;-79
2021/12/06 00:31:45;;;;;;;31.30;12.90;;;;;;;1.74;97.94;100499.08;104602;1324;61511;-75
2021/12/06 00:34:16;;;;;;;36.10;13.90;;;;;;;1.74;98.06;100505.68;104553;1325;60628;-75
2021/12/06 00:36:52;;;;;;;35.20;13.00;;;;;;;1.75;98.09;100509.10;104547;1328;75049;-75
2021/12/06 00:39:20;;;;;;;30.30;12.30;;;;;;;1.76;98.20;100515.52;104542;1324;71592;-76
2021/12/06 00:41:47;;;;;;;33.80;13.80;;;;;;;1.74;97.87;100520.87;104605;1325;74970;-76
2021/12/06 00:44:14;;;;;;;21.50;7.90;;;;;;;1.73;98.21;100523.01;104603;1324;59754;-78
2021/12/06 00:46:41;;;;;;;33.50;13.10;;;;;;;1.70;98.00;100524.16;104461;1325;61851;-78
2021/12/06 00:49:11;;;;;;;31.70;13.90;;;;;;;1.71;98.10;100526.02;103575;1324;73783;-79
2021/12/06 00:51:39;;;;;;;31.40;14.20;;;;;;;1.71;97.98;100530.17;104670;1328;71671;-79
2021/12/06 00:54:09;;;;;;;35.50;15.40;;;;;;;1.71;98.10;100532.77;104363;1325;73030;-79
2021/12/06 00:56:37;;;;;;;36.40;15.30;;;;;;;1.72;98.00;100532.90;104533;1325;62612;-79
2021/12/06 00:59:04;;;;;;;41.00;15.60;;;;;;;1.71;98.00;100530.66;104320;1325;60638;-75
2021/12/06 01:01:33;;;;;;;33.80;13.30;;;;;;;1.70;98.10;100528.86;104547;1328;74931;-75
2021/12/06 01:04:00;;;;;;;41.80;16.70;;;;;;;1.66;97.85;100533.02;104541;1324;72713;-75
2021/12/06 01:06:31;;;;;;;39.70;15.40;;;;;;;1.63;97.91;100538.26;104552;1322;72839;-79
2021/12/06 01:08:58;;;;;;;29.10;12.10;;;;;;;1.62;98.18;100544.61;104569;1324;59895;-75
2021/12/06 01:11:25;;;;;;;31.00;11.50;;;;;;;1.60;97.91;100551.77;104379;1328;61639;-75
2021/12/06 01:13:52;;;;;;;24.60;10.10;;;;;;;1.57;97.62;100557.23;104565;1324;74997;-75
2021/12/06 01:16:21;;;;;;;41.00;16.60;;;;;;;1.56;97.91;100562.86;104586;1324;59190;-74
2021/12/06 01:18:48;;;;;;;33.90;15.40;;;;;;;1.56;97.67;100564.78;104554;1325;73111;-74
2021/12/06 01:21:25;;;;;;;33.10;13.60;;;;;;;1.56;97.70;100565.82;103887;1328;62655;-74
2021/12/06 01:29:08;;;;;;;31.00;13.40;;;;;;;1.54;97.46;100570.69;104491;1328;70866;-74
2021/12/06 01:31:50;;;;;;;28.50;11.20;;;;;;;1.54;97.38;100572.42;104596;1321;74058;-77
2021/12/06 01:39:48;;;;;;;41.70;17.10;;;;;;;1.51;97.25;100575.66;104422;1324;74322;-75
2021/12/06 01:42:14;;;;;;;24.80;9.50;;;;;;;1.50;97.19;100573.42;104384;1325;72044;-76
2021/12/06 01:44:44;;;;;;;32.30;14.10;;;;;;;1.50;97.00;100572.95;104574;1325;73920;-75
2021/12/06 01:47:24;;;;;;;42.10;16.30;;;;;;;1.50;97.00;100575.54;103608;1331;62483;-75
2021/12/06 01:49:58;;;;;;;39.00;17.50;;;;;;;1.51;96.89;100578.80;104599;1323;60636;-76
2021/12/06 01:52:28;;;;;;;27.60;11.80;;;;;;;1.52;96.84;100586.87;104241;1327;74289;-75
2021/12/06 01:54:56;;;;;;;39.20;16.40;;;;;;;1.52;96.67;100587.11;103483;1333;71458;-74
2021/12/06 01:57:25;;;;;;;34.70;13.10;;;;;;;1.52;96.75;100591.23;104592;1324;74038;-76
2021/12/06 01:59:53;;;;;;;40.50;16.90;;;;;;;1.52;96.72;100591.77;104537;1323;61024;-75
2021/12/06 02:02:22;;;;;;;29.50;10.70;;;;;;;1.52;96.76;100590.54;104579;1324;60746;-75
2021/12/06 02:04:50;;;;;;;35.80;15.80;;;;;;;1.50;96.75;100592.61;104615;1324;75937;-75
2021/12/06 02:07:20;;;;;;;44.40;17.10;;;;;;;1.52;96.70;100593.70;103445;1332;71255;-75
2021/12/06 02:09:48;;;;;;;31.70;12.20;;;;;;;1.54;96.68;100593.01;104616;1324;72878;-75
2021/12/06 02:12:17;;;;;;;42.90;18.10;;;;;;;1.56;96.51;100593.05;104220;1325;61673;-75
2021/12/06 02:17:40;;;;;;;29.10;13.80;;;;;;;1.60;96.39;100603.35;104333;1328;74652;-76
2021/12/06 02:20:14;;;;;;;42.10;16.20;;;;;;;1.62;96.40;100611.90;104599;1321;72410;-76
2021/12/06 02:22:42;;;;;;;32.00;14.30;;;;;;;1.63;96.29;100612.88;104619;1325;72981;-76
2021/12/06 02:25:15;;;;;;;19.20;8.90;;;;;;;1.60;96.01;100613.66;103519;1325;59801;-76
2021/12/06 02:27:42;;;;;;;40.30;16.30;;;;;;;1.55;95.53;100607.58;104603;1325;61644;-78
2021/12/06 02:30:10;;;;;;;36.70;16.10;;;;;;;1.52;95.76;100612.69;104597;1327;74934;-78
2021/12/06 02:32:38;;;;;;;36.40;16.30;;;;;;;1.50;95.77;100613.02;104623;1323;71477;-79
2021/12/06 02:35:08;;;;;;;39.40;15.30;;;;;;;1.50;95.80;100615.65;104551;1324;72344;-79
2021/12/06 02:37:35;;;;;;;36.60;15.60;;;;;;;1.50;95.98;100617.02;104315;1329;61656;-76
2021/12/06 02:40:19;;;;;;;34.60;14.60;;;;;;;1.50;95.98;100616.65;104408;1324;61715;-80
2021/12/06 02:42:49;;;;;;;36.20;16.10;;;;;;;1.51;95.97;100613.84;103546;1334;75982;-76
2021/12/06 02:45:18;;;;;;;36.70;15.00;;;;;;;1.52;95.97;100616.20;104480;1327;72974;-78
2021/12/06 02:47:52;;;;;;;37.40;15.50;;;;;;;1.52;96.02;100621.10;104569;1324;72908;-78
2021/12/06 02:50:22;;;;;;;25.40;10.60;;;;;;;1.52;95.86;100622.79;104575;1324;61066;-76
2021/12/06 02:52:50;;;;;;;37.50;14.40;;;;;;;1.51;95.89;100623.78;103556;1334;59295;-78
2021/12/06 02:55:36;;;;;;;24.20;10.70;;;;;;;1.50;95.80;100621.73;104581;1325;75033;-78
2021/12/06 02:58:13;;;;;;;34.70;14.00;;;;;;;1.48;95.78;100620.66;103945;1328;72456;-78
2021/12/06 03:00:44;;;;;;;34.90;14.40;;;;;;;1.49;95.89;100627.93;104557;1322;73195;-79
2021/12/06 03:03:11;;;;;;;37.70;14.70;;;;;;;1.49;95.78;100628.95;104350;1328;61484;-79
2021/12/06 03:05:38;;;;;;;38.60;17.30;;;;;;;1.50;95.83;100629.41;104589;1323;60601;-78
2021/12/06 03:08:06;;;;;;;39.70;16.20;;;;;;;1.51;95.85;100632.08;103773;1324;74944;-78
2021/12/06 03:10:33;;;;;;;31.70;12.60;;;;;;;1.52;95.80;100631.54;104370;1322;71775;-78
2021/12/06 03:13:00;;;;;;;24.40;9.10;;;;;;;1.51;95.78;100627.26;104568;1324;73062;-78
2021/12/06 03:15:27;;;;;;;35.00;13.90;;;;;;;1.50;95.66;100632.05;104584;1325;59787;-78
2021/12/06 03:17:54;;;;;;;36.40;15.10;;;;;;;1.48;96.05;100630.75;103990;1321;60780;-76
2021/12/06 03:20:21;;;;;;;25.00;10.50;;;;;;;1.48;96.07;100635.29;104590;1325;74897;-76
2021/12/06 03:22:48;;;;;;;30.00;13.50;;;;;;;1.47;96.05;100639.36;103706;1328;72451;-78
2021/12/06 03:25:17;;;;;;;22.50;9.80;;;;;;;1.46;96.12;100643.62;104550;1311;72619;-75
2021/12/06 03:27:43;;;;;;;34.60;12.90;;;;;;;1.46;96.20;100645.27;104497;1311;62447;-75
2021/12/06 03:30:12;;;;;;;37.50;13.50;;;;;;;1.43;95.98;100650.65;104393;1311;61316;-75
2021/12/06 03:32:38;;;;;;;38.20;14.50;;;;;;;1.43;96.13;100650.17;103786;1305;78286;-75
2021/12/06 03:35:06;;;;;;;32.60;13.00;;;;;;;1.44;96.19;100648.98;104750;1322;59164;-75
2021/12/06 03:37:32;;;;;;;41.50;14.70;;;;;;;1.45;96.44;100639.38;104518;1325;74345;-75
2021/12/06 03:39:59;;;;;;;25.60;9.50;;;;;;;1.48;96.36;100638.47;104676;1321;62246;-75
2021/12/06 03:42:25;;;;;;;34.50;12.00;;;;;;;1.48;96.38;100637.90;104680;1322;61040;-78
2021/12/06 03:44:53;;;;;;;38.00;13.50;;;;;;;1.49;96.29;100640.95;104762;1322;76034;-76
2021/12/06 03:47:23;;;;;;;34.80;13.70;;;;;;;1.50;96.27;100642.79;104702;1321;72436;-76
2021/12/06 03:49:51;;;;;;;30.70;11.90;;;;;;;1.50;96.29;100647.16;104734;1319;73959;-75
2021/12/06 03:52:19;;;;;;;34.30;14.00;;;;;;;1.51;96.50;100651.09;104719;1321;61491;-76
2021/12/06 03:54:46;;;;;;;27.10;9.40;;;;;;;1.52;96.37;100655.06;103709;1325;60409;-76
2021/12/06 03:57:13;;;;;;;23.70;9.40;;;;;;;1.51;96.25;100665.25;104624;1321;75142;-78
2021/12/06 03:59:41;;;;;;;28.90;11.10;;;;;;;1.48;96.50;100667.70;104657;1321;71823;-80
2021/12/06 04:02:08;;;;;;;26.50;10.90;;;;;;;1.48;96.57;100672.45;104491;1322;73947;-79
2021/12/06 04:04:35;;;;;;;40.40;14.80;;;;;;;1.47;96.52;100672.02;103580;1329;59193;-79
2021/12/06 04:07:04;;;;;;;36.80;14.10;;;;;;;1.46;96.61;100677.63;103817;1325;60508;-76
2021/12/06 04:09:31;;;;;;;33.40;12.10;;;;;;;1.47;96.61;100679.89;103815;1321;75992;-75
2021/12/06 04:11:57;;;;;;;29.90;12.00;;;;;;;1.47;96.43;100686.59;104555;1324;73121;-75
2021/12/06 04:14:27;;;;;;;35.40;13.20;;;;;;;1.47;96.17;100688.56;103512;1322;73136;-77
2021/12/06 04:16:54;;;;;;;39.30;14.60;;;;;;;1.45;96.24;100688.69;104547;1322;62869;-77
2021/12/06 04:19:25;;;;;;;38.60;13.60;;;;;;;1.47;96.56;100688.55;104689;1324;59481;-77
2021/12/06 04:21:52;;;;;;;38.50;15.20;;;;;;;1.49;96.45;100689.11;104641;1321;76271;-78
2021/12/06 04:24:19;;;;;;;37.80;13.30;;;;;;;1.50;96.56;100690.61;104546;1322;71504;-78
2021/12/06 04:26:46;;;;;;;28.00;11.70;;;;;;;1.53;96.44;100694.66;104582;1324;73025;-78
2021/12/06 04:29:13;;;;;;;31.90;14.20;;;;;;;1.56;96.38;100696.23;104489;1321;61531;-78
2021/12/06 04:31:45;;;;;;;33.20;12.50;;;;;;;1.59;96.42;100698.60;104650;1324;60580;-75
2021/12/06 04:34:12;;;;;;;28.20;10.10;;;;;;;1.61;96.28;100699.52;104535;1323;73586;-75
2021/12/06 04:36:41;;;;;;;29.10;11.40;;;;;;;1.60;96.16;100701.66;103915;1322;71397;-78
2021/12/06 04:39:09;;;;;;;25.50;10.10;;;;;;;1.58;96.00;100697.62;104667;1321;72829;-78
2021/12/06 04:41:37;;;;;;;29.00;11.00;;;;;;;1.52;95.86;100692.88;104677;1321;59983;-75
2021/12/06 04:44:03;;;;;;;35.90;14.50;;;;;;;1.55;95.74;100695.23;103727;1321;62088;-76
2021/12/06 04:46:30;;;;;;;22.80;8.20;;;;;;;1.55;95.81;100699.76;103996;1321;74979;-76
2021/12/06 04:48:57;;;;;;;30.20;12.80;;;;;;;1.55;95.79;100703.42;104531;1322;71415;-76
2021/12/06 04:51:24;;;;;;;32.20;12.30;;;;;;;1.57;96.19;100705.94;104640;1324;73943;-76
2021/12/06 04:53:52;;;;;;;30.40;12.30;;;;;;;1.58;95.97;100709.14;104524;1322;62598;-78
2021/12/06 04:56:36;;;;;;;30.80;12.60;;;;;;;1.59;95.89;100710.43;104703;1322;60662;-78
2021/12/06 04:59:15;;;;;;;27.90;11.30;;;;;;;1.60;95.64;100708.98;104170;1321;75159;-80
2021/12/06 05:01:42;;;;;;;17.10;7.50;;;;;;;1.58;95.64;100707.58;103752;1327;72467;-77
2021/12/06 05:04:13;;;;;;;24.80;10.00;;;;;;;1.56;95.60;100708.79;104618;1322;73811;-75
2021/12/06 05:06:42;;;;;;;18.60;7.80;;;;;;;1.54;95.73;100715.02;103498;1334;60206;-75
2021/12/06 05:09:15;;;;;;;31.60;11.00;;;;;;;1.52;95.65;100717.09;104245;1325;59477;-75
2021/12/06 05:11:44;;;;;;;36.40;12.60;;;;;;;1.52;95.80;100720.61;104691;1318;74894;-77
2021/12/06 05:14:11;;;;;;;19.00;7.30;;;;;;;1.52;95.75;100727.21;104683;1321;71385;-78
2021/12/06 05:16:38;;;;;;;31.90;13.30;;;;;;;1.51;95.55;100730.38;104702;1321;73285;-79
2021/12/06 05:19:05;;;;;;;34.00;13.70;;;;;;;1.51;95.84;100734.23;104580;1322;61005;-78
2021/12/06 05:21:37;;;;;;;36.20;12.10;;;;;;;1.52;95.58;100735.17;104725;1319;61865;-78
2021/12/06 05:24:07;;;;;;;38.70;13.90;;;;;;;1.52;95.52;100738.20;104697;1321;74733;-79
2021/12/06 05:26:34;;;;;;;31.90;12.50;;;;;;;1.53;95.71;100738.98;104638;1321;72740;-75
2021/12/06 05:29:02;;;;;;;41.10;15.70;;;;;;;1.55;95.91;100741.45;104632;1321;73958;-77
2021/12/06 05:31:29;;;;;;;26.60;10.50;;;;;;;1.56;95.76;100745.52;103722;1327;61467;-75
2021/12/06 05:34:02;;;;;;;36.30;13.60;;;;;;;1.53;95.44;100750.32;104320;1324;60312;-75
2021/12/06 05:36:28;;;;;;;34.00;13.80;;;;;;;1.52;96.01;100752.67;104432;1323;75049;-75
2021/12/06 05:38:56;;;;;;;22.40;9.10;;;;;;;1.51;95.91;100753.62;104637;1321;59113;-75
2021/12/06 05:41:23;;;;;;;27.60;11.50;;;;;;;1.51;96.06;100755.70;104635;1322;75284;-78
2021/12/06 05:43:49;;;;;;;18.90;8.90;;;;;;;1.50;96.04;100756.27;103720;1321;60782;-79
2021/12/06 05:46:17;;;;;;;32.00;13.20;;;;;;;1.50;96.00;100765.16;104092;1325;59266;-78
2021/12/06 05:48:43;;;;;;;34.90;12.70;;;;;;;1.51;95.85;100767.02;104550;1322;75087;-78
2021/12/06 05:51:10;;;;;;;31.70;12.50;;;;;;;1.51;95.72;100765.11;104705;1321;72527;-79
2021/12/06 05:53:36;;;;;;;39.30;13.40;;;;;;;1.50;95.35;100768.45;104690;1324;73547;-79
2021/12/06 05:56:03;;;;;;;32.90;13.40;;;;;;;1.50;95.48;100777.90;104313;1325;59476;-79
2021/12/06 05:58:32;;;;;;;33.90;14.10;;;;;;;1.51;95.43;100786.56;104459;1324;60549;-76
2021/12/06 06:00:58;;;;;;;31.30;12.50;;;;;;;1.51;95.09;100792.13;104577;1323;76170;-78
2021/12/06 06:03:25;;;;;;;25.40;10.90;;;;;;;1.48;94.68;100793.87;104065;1325;71463;-79
2021/12/06 06:05:53;;;;;;;18.70;8.10;;;;;;;1.46;94.63;100796.83;104640;1321;72708;-76
2021/12/06 06:08:20;;;;;;;27.60;11.20;;;;;;;1.43;94.76;100796.33;104488;1323;62747;-79
2021/12/06 06:10:47;;;;;;;20.10;9.40;;;;;;;1.41;94.82;100795.77;103918;1324;60770;-79
2021/12/06 06:13:14;;;;;;;30.20;13.70;;;;;;;1.41;94.88;100801.90;103511;1333;75996;-79
2021/12/06 06:15:41;;;;;;;29.60;14.30;;;;;;;1.42;94.66;100805.11;104660;1321;71050;-76
2021/12/06 06:18:08;;;;;;;34.70;14.70;;;;;;;1.43;94.59;100807.14;104586;1322;72905;-79
2021/12/06 06:20:43;;;;;;;29.30;13.10;;;;;;;1.43;94.54;100808.18;104472;1324;61544;-79
2021/12/06 06:23:10;;;;;;;28.20;13.30;;;;;;;1.44;94.39;100803.05;104646;1321;60193;-79
2021/12/06 06:25:38;;;;;;;19.70;9.50;;;;;;;1.42;94.28;100800.58;104685;1321;76043;-79
2021/12/06 06:28:06;;;;;;;15.20;7.60;;;;;;;1.40;94.14;100803.20;104696;1322;71466;-76
2021/12/06 06:30:33;;;;;;;24.20;11.90;;;;;;;1.37;94.05;100810.23;104642;1321;74536;-76
2021/12/06 06:32:59;;;;;;;17.50;8.40;;;;;;;1.34;94.24;100817.57;104485;1324;59856;-79
2021/12/06 06:35:27;;;;;;;21.40;11.10;;;;;;;1.30;94.07;100813.52;104698;1322;60608;-79
2021/12/06 06:37:53;;;;;;;21.80;11.50;;;;;;;1.31;94.12;100817.33;104662;1321;75031;-77
2021/12/06 06:40:20;;;;;;;28.20;13.30;;;;;;;1.31;94.27;100819.58;104313;1321;71604;-77
2021/12/06 06:42:47;;;;;;;24.00;11.80;;;;;;;1.33;94.25;100818.55;104544;1324;59146;-77
2021/12/06 06:45:18;;;;;;;26.20;12.40;;;;;;;1.33;93.97;100823.05;104497;1324;61559;-77
2021/12/06 06:47:45;;;;;;;21.60;10.90;;;;;;;1.30;93.89;100829.20;103739;1325;60648;-79
2021/12/06 06:50:12;;;;;;;25.30;12.40;;;;;;;1.27;94.03;100834.29;104285;1329;76024;-79
2021/12/06 06:52:43;;;;;;;17.90;9.50;;;;;;;1.26;94.18;100839.99;104778;1326;71557;-79
2021/12/06 06:55:10;;;;;;;19.60;9.50;;;;;;;1.23;94.25;100844.02;104599;1328;72940;-78
2021/12/06 06:57:39;;;;;;;26.60;12.80;;;;;;;1.20;94.05;100841.73;104551;1331;62083;-82
2021/12/06 07:00:30;;;;;;;30.90;13.50;;;;;;;1.20;94.11;100842.27;104516;1329;61822;-77
2021/12/06 07:02:57;;;;;;;27.90;12.90;;;;;;;1.20;94.22;100846.09;104164;1329;76337;-77
2021/12/06 07:05:26;;;;;;;27.30;12.70;;;;;;;1.20;94.02;100851.83;104505;1328;71441;-76
2021/12/06 07:07:52;;;;;;;21.70;12.20;;;;;;;1.19;94.10;100850.69;104682;1325;73989;-76
2021/12/06 07:10:20;;;;;;;23.60;11.10;;;;;;;1.17;94.13;100852.58;104634;1327;59473;-76
2021/12/06 07:12:50;;;;;;;27.70;13.30;;;;;;;1.14;94.11;100858.21;104602;1322;61546;-76
2021/12/06 07:15:21;;;;;;;25.70;11.50;;;;;;;1.13;94.47;100861.59;104640;1328;76131;-77
2021/12/06 07:17:47;;;;;;;18.00;9.00;;;;;;;1.12;94.40;100866.02;104666;1329;71707;-76
2021/12/06 07:20:15;;;;;;;25.90;13.20;;;;;;;1.11;94.27;100869.93;104508;1328;73804;-76
2021/12/06 07:22:42;;;;;;;29.80;14.40;;;;;;;1.12;94.51;100873.53;104630;1325;60743;-82
2021/12/06 07:25:11;;;;;;;32.80;15.10;;;;;;;1.15;94.57;100872.97;104459;1329;60654;-82
2021/12/06 07:27:38;;;;;;;36.10;14.50;;;;;;;1.19;94.57;100874.08;104680;1324;75600;-82
2021/12/06 07:30:07;;;;;;;32.20;15.80;;;;;;;1.20;94.27;100869.93;104561;1328;71448;-80
2021/12/06 07:32:34;;;;;;;29.10;14.60;;;;;;;1.24;94.16;100871.79;103491;1337;70856;-79
2021/12/06 07:35:02;;;;;;;26.20;13.10;;;;;;;1.26;94.18;100875.34;104693;1329;60000;-79
2021/12/06 07:37:29;;;;;;;21.00;11.70;;;;;;;1.26;94.05;100877.96;104551;1323;61774;-79
2021/12/06 07:39:58;;;;;;;21.70;10.40;;;;;;;1.24;93.77;100872.34;104636;1328;76119;-79
2021/12/06 07:42:25;;;;;;;21.70;11.00;;;;;;;1.22;93.95;100873.32;104216;1327;624361;-79
2021/12/06 07:44:52;;;;;;;30.80;13.00;;;;;;;1.21;94.10;100874.25;104399;1328;73974;-79
2021/12/06 07:47:19;;;;;;;16.50;7.80;;;;;;;1.23;94.23;100872.08;104663;1323;60157;-79
2021/12/06 07:49:45;;;;;;;35.90;14.60;;;;;;;1.24;94.02;100876.83;103905;1330;60705;-80
2021/12/06 07:52:25;;;;;;;29.60;12.90;;;;;;;1.25;93.99;100880.45;104695;1327;75979;-82
2021/12/06 07:54:53;;;;;;;34.40;15.20;;;;;;;1.23;93.84;100883.35;103766;1331;72303;-82
2021/12/06 07:57:19;;;;;;;38.80;15.30;;;;;;;1.22;93.91;100877.81;104659;1323;74299;-82
2021/12/06 07:59:46;;;;;;;31.90;13.30;;;;;;;1.21;93.87;100870.92;104618;1322;59308;-81
2021/12/06 08:02:13;;;;;;;33.00;13.50;;;;;;;1.21;93.82;100867.84;103516;1340;62298;-82
2021/12/06 08:04:39;;;;;;;35.30;13.90;;;;;;;1.21;94.02;100868.66;104678;1328;74947;-82
2021/12/06 08:07:06;;;;;;;37.30;15.50;;;;;;;1.21;94.07;100869.71;104729;1327;59110;-80
2021/12/06 08:09:33;;;;;;;30.60;13.30;;;;;;;1.22;93.89;100873.85;104564;1327;72949;-80
2021/12/06 08:12:00;;;;;;;27.20;11.50;;;;;;;1.21;93.89;100879.84;104340;1329;59996;-80
2021/12/06 08:14:26;;;;;;;23.20;9.10;;;;;;;1.20;94.06;100875.21;104614;1328;59323;-82
2021/12/06 08:16:53;;;;;;;28.00;10.20;;;;;;;1.18;94.09;100876.72;104686;1324;73794;-79
2021/12/06 08:19:20;;;;;;;26.80;11.90;;;;;;;1.19;93.99;100875.65;104748;1327;71920;-78
2021/12/06 08:21:47;;;;;;;36.40;15.20;;;;;;;1.18;94.20;100880.07;104501;1323;74138;-82
2021/12/06 08:24:13;;;;;;;32.10;13.40;;;;;;;1.18;94.21;100881.42;104621;1324;62893;-82
2021/12/06 08:26:42;;;;;;;36.40;15.30;;;;;;;1.19;94.20;100880.29;103736;1328;60657;-82
2021/12/06 08:29:12;;;;;;;40.90;15.60;;;;;;;1.22;94.36;100878.88;104708;1327;76081;-83
2021/12/06 08:31:41;;;;;;;37.30;15.40;;;;;;;1.26;94.22;100878.83;103675;1324;71515;-82
2021/12/06 08:34:08;;;;;;;32.50;14.50;;;;;;;1.30;94.34;100880.45;104576;1323;73215;-82
2021/12/06 08:36:35;;;;;;;31.20;13.10;;;;;;;1.30;93.82;100881.12;104695;1318;61446;-80
2021/12/06 08:39:04;;;;;;;32.10;13.20;;;;;;;1.30;93.77;100881.17;104361;1327;61785;-81
2021/12/06 08:41:31;;;;;;;36.30;15.50;;;;;;;1.28;93.82;100884.41;104624;1326;74904;-82
2021/12/06 08:43:58;;;;;;;27.50;12.60;;;;;;;1.27;93.93;100882.90;104565;1324;72710;-82
2021/12/06 08:46:28;;;;;;;24.80;12.00;;;;;;;1.28;94.02;100880.59;104636;1327;73074;-82
2021/12/06 08:48:55;;;;;;;26.80;11.70;;;;;;;1.28;94.06;100883.73;104682;1324;62311;-80
2021/12/06 08:54:04;;;;;;;36.70;15.20;;;;;;;1.29;93.77;100883.27;104671;1312;75923;-80
2021/12/06 08:56:31;;;;;;;35.70;14.50;;;;;;;1.30;93.91;100884.27;104833;1320;73025;-82
2021/12/06 08:58:58;;;;;;;41.00;16.70;;;;;;;1.33;93.93;100879.70;104402;1327;74031;-82
2021/12/06 09:01:26;;;;;;;27.20;12.20;;;;;;;1.36;93.92;100877.22;104575;1324;61429;-82
2021/12/06 09:04:13;;;;;;;28.60;11.30;;;;;;;1.36;93.77;100875.65;103767;1330;62705;-81
2021/12/06 09:06:44;;;;;;;24.20;8.80;;;;;;;1.36;93.90;100877.21;104392;1327;75207;-80
2021/12/06 09:09:12;;;;;;;43.70;15.90;;;;;;;1.34;93.89;100870.93;103695;1322;70935;-82
2021/12/06 09:11:41;;;;;;;30.00;12.90;;;;;;;1.34;93.94;100871.60;104591;1322;72990;-83
2021/12/06 09:14:08;;;;;;;32.30;12.90;;;;;;;1.34;93.90;100872.29;104574;1322;61475;-82
2021/12/06 09:16:37;;;;;;;36.30;15.50;;;;;;;1.35;93.75;100865.40;104534;1325;61681;-80
2021/12/06 09:19:06;;;;;;;36.80;14.30;;;;;;;1.38;93.91;100866.28;104561;1323;76083;-80
2021/12/06 09:21:35;;;;;;;34.70;14.00;;;;;;;1.41;93.73;100864.65;104635;1324;72461;-80
2021/12/06 09:24:06;;;;;;;28.70;12.90;;;;;;;1.42;93.58;100863.50;104448;1328;73945;-80
2021/12/06 09:26:33;;;;;;;30.50;12.00;;;;;;;1.43;93.46;100858.78;104602;1328;61656;-80
2021/12/06 09:29:00;;;;;;;34.40;14.00;;;;;;;1.42;93.34;100867.04;104589;1328;61643;-80
2021/12/06 09:31:27;;;;;;;31.20;13.60;;;;;;;1.43;93.45;100872.68;103519;1340;75492;-82
2021/12/06 09:33:54;;;;;;;27.20;10.10;;;;;;;1.45;93.53;100875.54;104619;1324;72495;-82
2021/12/06 09:36:21;;;;;;;21.00;8.20;;;;;;;1.45;93.37;100874.45;104548;1325;74043;-82
2021/12/06 09:38:48;;;;;;;30.40;12.80;;;;;;;1.46;93.16;100867.60;104623;1328;62665;-82
2021/12/06 09:41:21;;;;;;;27.50;11.90;;;;;;;1.47;93.16;100871.86;104570;1327;61582;-82
2021/12/06 09:43:50;;;;;;;23.00;10.60;;;;;;;1.48;93.10;100872.52;104694;1322;76216;-80
2021/12/06 09:46:18;;;;;;;27.80;12.30;;;;;;;1.49;92.96;100874.00;104706;1322;72435;-82
2021/12/06 09:48:47;;;;;;;30.90;12.10;;;;;;;1.50;92.67;100873.23;104605;1328;74004;-80
2021/12/06 09:51:25;;;;;;;33.60;14.50;;;;;;;1.52;92.59;100866.98;104625;1327;61818;-80
2021/12/06 09:53:54;;;;;;;27.70;13.70;;;;;;;1.56;92.82;100861.64;103824;1325;60634;-82
2021/12/06 09:56:28;;;;;;;29.00;12.80;;;;;;;1.59;92.55;100860.91;104524;1324;75595;-82
2021/12/06 09:58:56;;;;;;;22.30;10.30;;;;;;;1.59;92.54;100860.70;104582;1324;72424;-80
2021/12/06 10:01:27;;;;;;;19.60;9.50;;;;;;;1.59;92.53;100857.02;103922;1329;72937;-82
2021/12/06 10:03:58;;;;;;;18.60;8.30;;;;;;;1.60;92.60;100859.03;104598;1324;60608;-81
2021/12/06 10:06:28;;;;;;;33.70;13.80;;;;;;;1.60;92.50;100858.91;103478;1326;60646;-82
2021/12/06 10:09:03;;;;;;;29.10;11.90;;;;;;;1.59;92.53;100859.80;104626;1322;76146;-80
2021/12/06 10:11:30;;;;;;;30.50;11.70;;;;;;;1.59;92.17;100858.61;104484;1311;66706;-82
2021/12/06 10:13:57;;;;;;;27.80;13.10;;;;;;;1.59;92.17;100858.11;104936;1322;74363;-82
2021/12/06 10:16:25;;;;;;;31.60;13.30;;;;;;;1.61;92.17;100863.87;104829;1325;61812;-82
2021/12/06 10:18:52;;;;;;;24.80;10.70;;;;;;;1.63;91.96;100863.86;104616;1327;61624;-81
2021/12/06 10:21:20;;;;;;;28.90;12.10;;;;;;;1.65;92.04;100864.47;103662;1328;76029;-82
2021/12/06 10:23:46;;;;;;;22.80;9.20;;;;;;;1.66;92.16;100868.59;104851;1326;71786;-82
2021/12/06 10:26:17;;;;;;;32.70;14.50;;;;;;;1.67;92.10;100871.48;104931;1320;72321;-81
2021/12/06 10:28:44;;;;;;;23.30;10.30;;;;;;;1.67;92.06;100870.95;103859;1322;60889;-82
2021/12/06 10:31:14;;;;;;;26.60;11.80;;;;;;;1.67;91.84;100867.66;104931;1321;59624;-80
2021/12/06 10:33:45;;;;;;;28.00;12.70;;;;;;;1.67;91.93;100862.92;104136;1325;76019;-80
2021/12/06 10:36:15;;;;;;;31.10;14.20;;;;;;;1.69;91.74;100859.69;104220;1323;72766;-80
2021/12/06 10:38:47;;;;;;;40.40;15.60;;;;;;;1.68;91.67;100858.85;104839;1321;73815;-82
2021/12/06 10:41:16;;;;;;;34.30;14.00;;;;;;;1.69;91.75;100861.56;104928;1322;60365;-82
2021/12/06 10:44:10;;;;;;;31.10;12.00;;;;;;;1.70;91.74;100862.52;104866;1327;60617;-81
2021/12/06 10:46:40;;;;;;;30.80;11.80;;;;;;;1.74;92.09;100860.98;104650;1321;75037;-81
2021/12/06 10:49:11;;;;;;;26.10;10.60;;;;;;;1.77;92.06;100861.30;104808;1325;71608;-82
2021/12/06 10:51:38;;;;;;;26.50;9.60;;;;;;;1.77;91.45;100855.00;103906;1328;72926;-80
2021/12/06 10:54:16;;;;;;;30.20;13.50;;;;;;;1.76;91.51;100851.25;104638;1320;59181;-80
2021/12/06 10:56:47;;;;;;;25.20;10.30;;;;;;;1.76;91.40;100851.25;104737;1312;61585;-78
2021/12/06 11:01:53;;;;;;;25.70;10.70;;;;;;;1.74;91.41;100845.99;104521;1323;72446;-82
2021/12/06 11:04:25;;;;;;;29.00;10.60;;;;;;;1.74;91.62;100842.54;104386;1327;74154;-82
2021/12/06 11:06:58;;;;;;;26.30;9.40;;;;;;;1.73;91.62;100838.63;104473;1324;62516;-82
2021/12/06 11:09:28;;;;;;;30.80;12.30;;;;;;;1.70;91.71;100834.84;104525;1324;62023;-80
2021/12/06 11:11:58;;;;;;;35.10;13.80;;;;;;;1.69;91.90;100831.44;104452;1323;75019;-82
2021/12/06 11:14:40;;;;;;;32.20;13.10;;;;;;;1.68;91.90;100823.26;103831;1328;71455;-82
2021/12/06 11:17:13;;;;;;;30.10;12.00;;;;;;;1.68;91.84;100820.15;104566;1323;72908;-82
2021/12/06 11:19:43;;;;;;;19.00;6.90;;;;;;;1.66;91.86;100814.16;104561;1321;60040;-80
2021/12/06 11:22:16;;;;;;;25.70;11.50;;;;;;;1.62;91.99;100810.11;103998;1324;61655;-80
2021/12/06 11:24:51;;;;;;;34.50;11.50;;;;;;;1.57;91.72;100809.42;104664;1323;75126;-79
2021/12/06 11:27:22;;;;;;;13.40;5.60;;;;;;;1.53;91.55;100805.89;104196;1323;71138;-82
2021/12/06 11:30:03;;;;;;;26.10;11.10;;;;;;;1.52;91.47;100800.56;104492;1324;74269;-83
2021/12/06 11:32:43;;;;;;;19.20;8.10;;;;;;;1.53;91.29;100800.14;104413;1328;62718;-82
2021/12/06 11:35:13;;;;;;;32.00;11.30;;;;;;;1.54;90.89;100801.09;104446;1328;60810;-80
2021/12/06 11:37:44;;;;;;;23.40;9.20;;;;;;;1.59;91.16;100801.27;104090;1323;75829;-81